Terminal Aerodrome Forecast
Issued by NWS

Home | Current Version | Previous Version | Graphics & Text | Print | Product List | Glossary On
Versions: 1 2 3 4 5 6 7 8 9 10 11 12 13 14 15 16 17 18 19 20 21 22 23 24 25 26 27 28 29
000
FTUS43 KLOT 201938 AAA
TAFMDW
TAF AMD
KMDW 201938Z 2020/2124 28012KT 4SM RA BR SCT008 OVC015
      TEMPO 2020/2022 2SM RA BR BKN008
     FM202200 30011G19KT 3SM RA BR SCT004 OVC007
     FM210700 32014G21KT 4SM -FZRAPL BR SCT007 OVC015
     FM210900 33013G19KT P6SM SCT015 BKN080
     FM211300 34012KT P6SM BKN250
     FM211900 02011KT P6SM FEW025 BKN250=

USA.gov is the U.S. government's official web portal to all federal, state and local government web resources and services.